Time;durP1;ratioP1;P1;durP2;ratioP2;P2;SDS_P1;SDS_P2;PMS_P1;PMS_P2;Temp;Humidity;BMP_temperature;BMP_pressure;BME280_temperature;BME280_humidity;BME280_pressure;Samples;Min_cycle;Max_cycle;Signal;HPM_P1;HPM_P2
2021/04/25 00:02:25;;;;;;;29.50;9.00;;;;;;;;;;4766671;30;20197;-85
2021/04/25 00:04:51;;;;;;;26.97;9.77;;;;;;;;;;4753288;30;20752;-85
2021/04/25 00:07:17;;;;;;;31.40;9.30;;;;;;;;;;4766496;30;20652;-90
2021/04/25 00:09:44;;;;;;;21.47;8.97;;;;;;;;;;4766566;30;20340;-84
2021/04/25 00:12:10;;;;;;;21.80;8.10;;;;;;;;;;4752396;30;20186;-84
2021/04/25 00:14:36;;;;;;;23.43;9.93;;;;;;;;;;4766210;30;20202;-84
2021/04/25 00:17:02;;;;;;;19.97;9.03;;;;;;;;;;4751583;30;20348;-84
2021/04/25 00:19:28;;;;;;;20.03;9.13;;;;;;;;;;4752624;30;20186;-84
2021/04/25 00:21:54;;;;;;;22.70;8.80;;;;;;;;;;4752840;30;20695;-84
2021/04/25 00:24:21;;;;;;;23.30;9.60;;;;;;;;;;4752502;30;20213;-85
2021/04/25 00:26:47;;;;;;;21.43;8.07;;;;;;;;;;4752586;30;20197;-84
2021/04/25 00:29:13;;;;;;;23.93;9.57;;;;;;;;;;4753195;30;20194;-84
2021/04/25 00:31:39;;;;;;;20.83;8.70;;;;;;;;;;4751191;30;20197;-84
2021/04/25 00:34:05;;;;;;;26.37;10.00;;;;;;;;;;4752723;30;20218;-84
2021/04/25 00:36:32;;;;;;;22.40;10.13;;;5.40;99.90;;;;;;4752622;30;20683;-84
2021/04/25 00:38:58;;;;;;;22.93;9.83;;;;;;;;;;4766352;30;20672;-84
2021/04/25 00:41:24;;;;;;;21.83;10.83;;;;;;;;;;4752207;30;20251;-85
2021/04/25 00:43:50;;;;;;;28.27;11.63;;;;;;;;;;4752760;30;20194;-84
2021/04/25 00:46:15;;;;;;;23.83;11.73;;;5.40;99.90;;;;;;4751347;30;20237;-84
2021/04/25 00:48:41;;;;;;;23.53;11.77;;;5.40;99.90;;;;;;4751199;30;20287;-84
2021/04/25 00:51:11;;;;;;;26.63;11.90;;;5.40;99.90;;;;;;4752693;30;20190;-84
2021/04/25 00:53:36;;;;;;;20.63;10.10;;;5.40;99.90;;;;;;4766113;30;20634;-84
2021/04/25 00:56:03;;;;;;;25.40;11.43;;;5.20;99.90;;;;;;4766272;30;20236;-84
2021/04/25 00:58:29;;;;;;;21.10;9.60;;;5.40;99.90;;;;;;4752390;30;20194;-84
2021/04/25 01:00:55;;;;;;;28.17;10.20;;;5.30;99.90;;;;;;4752706;30;20657;-84
2021/04/25 01:03:23;;;;;;;24.60;10.40;;;5.30;99.90;;;;;;4752622;30;20205;-84
2021/04/25 01:05:50;;;;;;;18.97;9.33;;;5.30;99.90;;;;;;4755931;30;20224;-84
2021/04/25 01:08:16;;;;;;;23.67;9.00;;;;;;;;;;4755055;30;20232;-85
2021/04/25 01:10:42;;;;;;;22.10;10.47;;;5.30;99.90;;;;;;4755571;30;20702;-85
2021/04/25 01:13:09;;;;;;;23.53;9.97;;;5.40;99.90;;;;;;4754900;30;20209;-84
2021/04/25 01:15:34;;;;;;;21.53;9.70;;;5.30;99.90;;;;;;4755726;30;20269;-85
2021/04/25 01:18:00;;;;;;;24.57;10.00;;;5.30;99.90;;;;;;4756120;30;20665;-85
2021/04/25 01:20:26;;;;;;;29.97;10.73;;;5.30;99.90;;;;;;4754615;30;20200;-85
2021/04/25 01:22:52;;;;;;;30.87;11.93;;;5.30;99.90;;;;;;4754727;30;20198;-85
2021/04/25 01:25:23;;;;;;;25.90;11.27;;;5.30;99.90;;;;;;4755906;30;20222;-85
2021/04/25 01:27:50;;;;;;;29.27;12.20;;;5.20;99.90;;;;;;4754590;30;20193;-85
2021/04/25 01:30:22;;;;;;;30.73;12.70;;;5.20;99.90;;;;;;4755740;30;20182;-85
2021/04/25 01:32:47;;;;;;;34.77;13.07;;;5.20;99.90;;;;;;4755574;30;20190;-85
2021/04/25 01:35:20;;;;;;;31.43;13.07;;;5.20;99.90;;;;;;4755803;30;20279;-85
2021/04/25 01:37:48;;;;;;;32.47;13.17;;;5.20;99.90;;;;;;4755218;30;20186;-85
2021/04/25 01:40:14;;;;;;;31.63;13.97;;;5.20;99.90;;;;;;4755527;30;20197;-84
2021/04/25 01:42:40;;;;;;;34.70;14.73;;;5.20;99.90;;;;;;4755389;30;20186;-84
2021/04/25 01:45:07;;;;;;;46.90;16.47;;;5.10;99.90;;;;;;4754188;30;20225;-84
2021/04/25 01:47:33;;;;;;;46.50;18.37;;;5.10;99.90;;;;;;4755129;30;20198;-84
2021/04/25 01:49:58;;;;;;;47.50;18.13;;;5.10;99.90;;;;;;4768784;30;20292;-84
2021/04/25 01:52:24;;;;;;;41.73;18.43;;;5.00;99.90;;;;;;4754271;30;20546;-85
2021/04/25 01:54:50;;;;;;;36.90;14.73;;;5.00;99.90;;;;;;4754081;30;20289;-85
2021/04/25 01:57:16;;;;;;;32.17;14.63;;;5.10;99.90;;;;;;4754192;30;20232;-85
2021/04/25 01:59:42;;;;;;;31.70;15.33;;;5.10;99.90;;;;;;4768446;30;20242;-85
2021/04/25 02:02:08;;;;;;;32.30;14.03;;;;;;;;;;4755102;30;20201;-85
2021/04/25 02:04:33;;;;;;;39.47;14.90;;;5.10;99.90;;;;;;4768443;30;20198;-85
2021/04/25 02:06:59;;;;;;;31.53;13.90;;;5.10;99.90;;;;;;4755146;30;20260;-85
2021/04/25 02:09:25;;;;;;;43.70;16.90;;;5.00;99.90;;;;;;4754679;30;20639;-84
2021/04/25 02:11:50;;;;;;;36.20;16.17;;;5.00;99.90;;;;;;4753725;30;20252;-84
2021/04/25 02:14:16;;;;;;;34.70;14.63;;;5.00;99.90;;;;;;4754531;30;20196;-84
2021/04/25 02:16:42;;;;;;;34.33;14.37;;;5.00;99.90;;;;;;4768597;30;20196;-84
2021/04/25 02:19:08;;;;;;;34.03;13.63;;;5.00;99.90;;;;;;4754870;30;20674;-84
2021/04/25 02:21:34;;;;;;;33.93;13.97;;;5.00;99.90;;;;;;4754476;30;20194;-85
2021/04/25 02:23:59;;;;;;;35.77;13.47;;;5.00;99.90;;;;;;4753455;30;20312;-84
2021/04/25 02:26:25;;;;;;;30.27;14.23;;;5.00;99.90;;;;;;4754774;30;20221;-84
2021/04/25 02:28:51;;;;;;;30.27;15.43;;;5.00;99.90;;;;;;4754765;30;20271;-84
2021/04/25 02:31:17;;;;;;;35.33;16.37;;;4.90;99.90;;;;;;4754971;30;20243;-85
2021/04/25 02:33:43;;;;;;;46.90;18.27;;;5.00;99.90;;;;;;4754206;30;20201;-84
2021/04/25 02:36:09;;;;;;;41.10;16.97;;;5.00;99.90;;;;;;4754425;30;20192;-84
2021/04/25 02:38:35;;;;;;;46.43;19.13;;;4.90;99.90;;;;;;4768042;30;20201;-84
2021/04/25 02:41:02;;;;;;;50.60;20.10;;;4.90;99.90;;;;;;4768121;30;20671;-84
2021/04/25 02:43:28;;;;;;;43.77;17.67;;;5.00;99.90;;;;;;4768152;29;20642;-84
2021/04/25 02:45:54;;;;;;;36.70;17.10;;;4.90;99.90;;;;;;4754057;30;20236;-84
2021/04/25 02:48:19;;;;;;;39.90;16.17;;;4.90;99.90;;;;;;4753481;30;20316;-84
2021/04/25 02:50:46;;;;;;;39.90;17.00;;;5.10;99.90;;;;;;4753134;30;20200;-85
2021/04/25 02:53:12;;;;;;;34.00;14.33;;;4.80;99.90;;;;;;4768119;30;20205;-84
2021/04/25 02:55:39;;;;;;;29.80;15.00;;;4.80;99.90;;;;;;4753062;30;20236;-85
2021/04/25 02:58:06;;;;;;;36.27;16.57;;;4.80;99.90;;;;;;4754300;30;20288;-84
2021/04/25 03:00:34;;;;;;;35.87;15.93;;;4.70;99.90;;;;;;4754141;30;20558;-84
2021/04/25 03:03:00;;;;;;;37.43;15.93;;;4.70;99.90;;;;;;4767584;30;20197;-85
2021/04/25 03:05:26;;;;;;;35.37;15.77;;;4.60;99.90;;;;;;4753800;30;20225;-84
2021/04/25 03:07:53;;;;;;;34.83;15.43;;;4.60;99.90;;;;;;4767988;30;20202;-85
2021/04/25 03:10:21;;;;;;;33.77;15.17;;;4.60;99.90;;;;;;4754717;30;20377;-85
2021/04/25 03:12:48;;;;;;;31.30;13.50;;;4.60;99.90;;;;;;4753904;30;20221;-85
2021/04/25 03:15:16;;;;;;;29.30;13.43;;;4.70;99.90;;;;;;4767833;30;20210;-85
2021/04/25 03:17:41;;;;;;;31.27;15.50;;;4.60;99.90;;;;;;4754175;30;20555;-86
2021/04/25 03:20:10;;;;;;;35.33;15.20;;;4.70;99.90;;;;;;4753332;30;20203;-84
2021/04/25 03:22:36;;;;;;;34.20;15.30;;;4.70;99.90;;;;;;4753860;30;20186;-89
2021/04/25 03:25:03;;;;;;;35.50;15.63;;;4.70;99.90;;;;;;4761572;30;20209;-84
2021/04/25 03:27:29;;;;;;;39.07;18.33;;;4.60;99.90;;;;;;4775314;30;20229;-86
2021/04/25 03:29:54;;;;;;;32.57;14.40;;;4.70;99.90;;;;;;4790151;30;20183;-86
2021/04/25 03:32:20;;;;;;;24.93;12.87;;;4.70;99.90;;;;;;4773174;30;20197;-85
2021/04/25 03:34:46;;;;;;;29.33;13.50;;;4.70;99.90;;;;;;4766727;30;20564;-85
2021/04/25 03:37:12;;;;;;;32.50;14.50;;;4.50;99.90;;;;;;4752877;30;20204;-85
2021/04/25 03:39:38;;;;;;;34.23;15.17;;;;;;;;;;4753140;30;20659;-90
2021/04/25 03:42:04;;;;;;;29.40;15.33;;;4.60;99.90;;;;;;4753705;30;20630;-84
2021/04/25 03:44:30;;;;;;;36.53;15.73;;;4.60;99.90;;;;;;4766644;30;20206;-84
2021/04/25 03:46:57;;;;;;;40.33;17.53;;;4.70;99.90;;;;;;4751676;30;20203;-85
2021/04/25 03:49:23;;;;;;;56.13;20.03;;;4.70;99.90;;;;;;4752898;30;20273;-84
2021/04/25 03:51:51;;;;;;;39.27;17.80;;;4.50;99.90;;;;;;4753351;30;20232;-85
2021/04/25 03:54:17;;;;;;;38.97;17.60;;;4.70;99.90;;;;;;4753212;30;20648;-85
2021/04/25 03:56:43;;;;;;;28.90;15.37;;;4.70;99.90;;;;;;4766528;30;20272;-85
2021/04/25 03:59:09;;;;;;;32.53;14.40;;;4.70;99.90;;;;;;4753286;30;20272;-85
2021/04/25 04:01:35;;;;;;;26.70;13.57;;;4.70;99.90;;;;;;4752912;30;20246;-84
2021/04/25 04:04:01;;;;;;;28.13;13.73;;;4.70;99.90;;;;;;4766364;30;20204;-85
2021/04/25 04:06:26;;;;;;;31.90;12.63;;;4.70;99.90;;;;;;4766514;30;20313;-85
2021/04/25 04:08:52;;;;;;;26.00;13.00;;;4.70;99.90;;;;;;4752477;30;20197;-85
2021/04/25 04:11:18;;;;;;;25.33;12.87;;;4.70;99.90;;;;;;4751521;30;20317;-85
2021/04/25 04:13:44;;;;;;;28.87;13.70;;;4.70;99.90;;;;;;4751528;30;20198;-86
2021/04/25 04:16:09;;;;;;;27.53;11.87;;;4.70;99.90;;;;;;4751633;30;20236;-85
2021/04/25 04:18:35;;;;;;;26.37;12.10;;;4.70;99.90;;;;;;4766436;30;20200;-85
2021/04/25 04:21:01;;;;;;;21.40;11.73;;;4.70;99.90;;;;;;4752767;30;20934;-85
2021/04/25 04:23:26;;;;;;;21.30;11.13;;;4.60;99.90;;;;;;4751756;30;20645;-85
2021/04/25 04:25:52;;;;;;;17.73;9.43;;;4.60;99.90;;;;;;4751367;30;20739;-85
2021/04/25 04:28:18;;;;;;;16.37;8.70;;;4.60;99.90;;;;;;4751550;30;20195;-85
2021/04/25 04:30:44;;;;;;;17.00;8.73;;;4.60;99.90;;;;;;4752260;30;20193;-86
2021/04/25 04:33:11;;;;;;;15.07;7.87;;;4.60;99.90;;;;;;4752988;30;20205;-85
2021/04/25 04:35:37;;;;;;;14.27;7.93;;;4.60;99.90;;;;;;4752712;30;20254;-85
2021/04/25 04:38:03;;;;;;;16.63;8.97;;;4.90;99.90;;;;;;4765555;30;20303;-85
2021/04/25 04:40:28;;;;;;;23.13;8.33;;;4.60;99.90;;;;;;4750970;30;20285;-84
2021/04/25 04:42:54;;;;;;;16.33;7.73;;;4.70;99.90;;;;;;4765759;30;20671;-86
2021/04/25 04:45:20;;;;;;;18.63;8.87;;;;;;;;;;4766067;30;20237;-86
2021/04/25 04:47:47;;;;;;;18.87;9.43;;;4.70;99.90;;;;;;4752268;30;20193;-86
2021/04/25 04:50:17;;;;;;;18.80;10.33;;;4.70;99.90;;;;;;4752497;30;20655;-86
2021/04/25 04:52:44;;;;;;;20.23;11.43;;;;;;;;;;4752303;30;20182;-85
2021/04/25 04:55:11;;;;;;;20.17;11.50;;;4.90;99.90;;;;;;4765862;30;20295;-86
2021/04/25 04:57:36;;;;;;;21.37;10.77;;;4.80;99.90;;;;;;4751420;30;20193;-85
2021/04/25 05:00:04;;;;;;;22.97;10.63;;;4.90;99.90;;;;;;4751992;30;20557;-85
2021/04/25 05:02:29;;;;;;;15.80;8.30;;;5.00;99.90;;;;;;4750802;30;20228;-86
2021/04/25 05:04:55;;;;;;;14.50;7.23;;;4.70;99.90;;;;;;4765472;30;20225;-86
2021/04/25 05:07:21;;;;;;;14.53;6.23;;;;;;;;;;4765650;30;20210;-83
2021/04/25 05:09:47;;;;;;;15.20;6.07;;;;;;;;;;4750720;30;20369;-89
2021/04/25 05:12:13;;;;;;;10.80;5.33;;;;;;;;;;4765602;30;20239;-83
2021/04/25 05:14:39;;;;;;;9.73;6.07;;;;;;;;;;4750886;30;20194;-83
2021/04/25 05:17:05;;;;;;;16.87;7.20;;;;;;;;;;4751965;30;20194;-83
2021/04/25 05:19:31;;;;;;;13.80;6.97;;;;;;;;;;4752038;30;20201;-83
2021/04/25 05:21:57;;;;;;;9.37;5.67;;;;;;;;;;4765542;30;20191;-83
2021/04/25 05:24:23;;;;;;;12.63;5.70;;;;;;;;;;4766995;30;20192;-85
2021/04/25 05:26:49;;;;;;;10.50;5.37;;;5.00;99.90;;;;;;4766553;30;20746;-83
2021/04/25 05:29:15;;;;;;;14.27;5.30;;;;;;;;;;4759363;30;20336;-83
2021/04/25 05:31:41;;;;;;;13.20;5.40;;;;;;;;;;4763502;30;20323;-85
2021/04/25 05:34:07;;;;;;;11.30;5.13;;;;;;;;;;4761529;30;20207;-84
2021/04/25 05:36:33;;;;;;;9.63;4.70;;;;;;;;;;4755105;30;20290;-82
2021/04/25 05:38:59;;;;;;;9.30;4.87;;;;;;;;;;4758682;30;20194;-86
2021/04/25 05:41:26;;;;;;;8.60;4.17;;;;;;;;;;4761727;30;20194;-85
2021/04/25 05:43:52;;;;;;;9.30;4.20;;;;;;;;;;4760738;30;20279;-87
2021/04/25 05:46:18;;;;;;;10.27;4.57;;;;;;;;;;4764141;30;20237;-83
2021/04/25 05:48:45;;;;;;;9.47;4.10;;;6.10;85.00;;;;;;4759307;30;20190;-82
2021/04/25 05:51:11;;;;;;;5.23;3.10;;;6.10;92.30;;;;;;4757486;30;20976;-83
2021/04/25 05:53:37;;;;;;;7.00;3.57;;;6.50;91.70;;;;;;4768318;30;20187;-82
2021/04/25 05:56:03;;;;;;;7.67;3.37;;;;;;;;;;4770602;30;20201;-81
2021/04/25 05:58:29;;;;;;;6.53;3.33;;;6.10;90.50;;;;;;4769708;30;20186;-82
2021/04/25 06:00:55;;;;;;;8.97;4.70;;;6.60;94.10;;;;;;4771137;30;20243;-83
2021/04/25 06:03:20;;;;;;;7.83;4.07;;;6.40;87.30;;;;;;4768118;30;20259;-84
2021/04/25 06:05:46;;;;;;;9.10;4.33;;;;;;;;;;4764169;30;20232;-83
2021/04/25 06:08:13;;;;;;;7.53;4.33;;;;;;;;;;4766338;30;20198;-83
2021/04/25 06:10:38;;;;;;;11.10;4.70;;;6.60;91.70;;;;;;4763797;30;20264;-82
2021/04/25 06:13:04;;;;;;;7.60;4.00;;;6.50;85.20;;;;;;4766234;30;20195;-85
2021/04/25 06:15:30;;;;;;;7.80;3.73;;;6.50;83.10;;;;;;4766992;30;20745;-81
2021/04/25 06:18:00;;;;;;;5.73;3.03;;;6.50;80.40;;;;;;4769939;30;20707;-83
2021/04/25 06:20:25;;;;;;;5.17;3.13;;;6.40;73.60;;;;;;4783763;29;20267;-82
2021/04/25 06:22:51;;;;;;;6.53;3.40;;;6.40;72.20;;;;;;4771203;30;20648;-84
2021/04/25 06:25:17;;;;;;;6.07;3.60;;;6.40;72.30;;;;;;4770092;30;20214;-83
2021/04/25 06:27:43;;;;;;;6.67;3.40;;;6.40;72.30;;;;;;4770887;30;20247;-83
2021/04/25 06:30:11;;;;;;;7.93;3.97;;;6.60;71.10;;;;;;4784080;29;20202;-82
2021/04/25 06:32:37;;;;;;;5.73;3.67;;;6.60;69.70;;;;;;4759085;29;20753;-83
2021/04/25 06:35:04;;;;;;;5.63;3.37;;;6.50;70.60;;;;;;4768761;30;20792;-82
2021/04/25 06:37:30;;;;;;;4.73;3.20;;;6.50;71.80;;;;;;4769656;29;20244;-82
2021/04/25 06:39:56;;;;;;;4.40;2.97;;;6.60;70.80;;;;;;4776212;29;20330;-82
2021/04/25 06:42:21;;;;;;;17.73;8.10;;;6.70;70.80;;;;;;4762315;30;20202;-85
2021/04/25 06:44:47;;;;;;;5.50;2.70;;;6.80;68.80;;;;;;4766873;30;20645;-82
2021/04/25 06:47:13;;;;;;;3.80;2.10;;;6.80;63.90;;;;;;4766869;30;20201;-82
2021/04/25 06:49:38;;;;;;;10.40;3.70;;;6.90;64.20;;;;;;4759177;30;20213;-82
2021/04/25 06:52:04;;;;;;;7.47;3.23;;;6.90;62.00;;;;;;4752358;30;20700;-82
2021/04/25 06:54:30;;;;;;;5.20;2.97;;;7.00;62.70;;;;;;4752579;30;20288;-82
2021/04/25 06:56:56;;;;;;;10.00;2.97;;;7.40;69.80;;;;;;4774494;29;20277;-81
2021/04/25 06:59:22;;;;;;;12.90;4.30;;;7.40;71.00;;;;;;4760866;30;20329;-81
2021/04/25 07:01:47;;;;;;;4.50;2.47;;;7.30;63.60;;;;;;4752731;30;20241;-82
2021/04/25 07:04:14;;;;;;;6.60;1.70;;;;;;;;;;4763540;30;20207;-84
2021/04/25 07:06:40;;;;;;;2.97;1.60;;;;;;;;;;4764225;30;20229;-83
2021/04/25 07:09:06;;;;;;;5.37;2.17;;;7.60;55.90;;;;;;4755691;30;20206;-83
2021/04/25 07:11:32;;;;;;;5.73;1.67;;;;;;;;;;4759804;30;20250;-84
2021/04/25 07:13:58;;;;;;;6.20;1.97;;;;;;;;;;4773430;29;20197;-83
2021/04/25 07:16:24;;;;;;;3.13;2.00;;;;;;;;;;4757416;30;20203;-83
2021/04/25 07:18:50;;;;;;;3.90;1.80;;;;;;;;;;4770978;29;20202;-83
2021/04/25 07:21:16;;;;;;;4.37;1.53;;;7.60;53.40;;;;;;4761768;30;20186;-82
2021/04/25 07:23:41;;;;;;;2.00;1.30;;;7.70;45.20;;;;;;4758795;30;20201;-82
2021/04/25 07:26:09;;;;;;;1.43;1.23;;;7.70;45.50;;;;;;4763606;30;20311;-80
2021/04/25 07:28:37;;;;;;;2.97;1.83;;;7.90;48.20;;;;;;4764693;30;20194;-81
2021/04/25 07:31:03;;;;;;;4.33;2.13;;;8.00;48.10;;;;;;4764174;30;20193;-82
2021/04/25 07:33:30;;;;;;;4.30;1.77;;;8.10;54.10;;;;;;4764825;30;20652;-82
2021/04/25 07:35:56;;;;;;;3.80;2.50;;;;;;;;;;4762050;30;20194;-82
2021/04/25 07:38:22;;;;;;;5.93;3.30;;;;;;;;;;4762354;30;20269;-82
2021/04/25 07:40:48;;;;;;;2.97;2.10;;;;;;;;;;4759283;30;20258;-81
2021/04/25 07:43:14;;;;;;;2.87;2.43;;;;;;;;;;4759956;30;20213;-82
2021/04/25 07:45:41;;;;;;;5.53;2.93;;;;;;;;;;4760122;30;20699;-82
2021/04/25 07:48:07;;;;;;;2.30;1.50;;;;;;;;;;4758667;30;20285;-83
2021/04/25 07:50:34;;;;;;;14.13;5.30;;;8.40;49.50;;;;;;4757711;30;20271;-83
2021/04/25 07:53:01;;;;;;;4.90;2.43;;;;;;;;;;4764941;30;20194;-81
2021/04/25 07:55:28;;;;;;;2.50;1.80;;;8.50;49.50;;;;;;4761648;30;20662;-81
2021/04/25 07:57:54;;;;;;;3.97;1.70;;;8.60;49.10;;;;;;4762878;30;20681;-81
2021/04/25 08:00:20;;;;;;;5.90;2.17;;;8.40;49.00;;;;;;4762274;30;20190;-81
2021/04/25 08:02:46;;;;;;;3.23;1.80;;;8.40;49.40;;;;;;4751185;30;20668;-81
2021/04/25 08:05:12;;;;;;;3.17;1.73;;;8.20;57.10;;;;;;4770476;29;20235;-81
2021/04/25 08:07:38;;;;;;;3.10;1.80;;;;;;;;;;4781954;29;20799;-82
2021/04/25 08:10:06;;;;;;;4.07;1.70;;;7.90;55.90;;;;;;4754486;30;20242;-81
2021/04/25 08:12:32;;;;;;;4.67;1.90;;;8.40;57.00;;;;;;4751427;30;20197;-81
2021/04/25 08:14:58;;;;;;;2.57;1.63;;;8.20;49.70;;;;;;4765742;30;20198;-81
2021/04/25 08:17:24;;;;;;;2.27;1.90;;;8.70;57.30;;;;;;4758631;30;20660;-82
2021/04/25 08:19:51;;;;;;;4.27;1.93;;;8.70;56.90;;;;;;4760106;30;20197;-83
2021/04/25 08:22:17;;;;;;;4.43;2.07;;;;;;;;;;4761921;29;20194;-83
2021/04/25 08:24:44;;;;;;;9.70;6.57;;;;;;;;;;4765638;30;20197;-83
2021/04/25 08:27:11;;;;;;;8.93;2.30;;;9.20;49.70;;;;;;4761083;30;20220;-83
2021/04/25 08:29:37;;;;;;;5.93;3.53;;;;;;;;;;4755287;30;20215;-81
2021/04/25 08:32:03;;;;;;;3.90;2.20;;;;;;;;;;4765491;30;20202;-83
2021/04/25 08:34:29;;;;;;;5.43;2.53;;;;;;;;;;4784515;29;20202;-82
2021/04/25 08:36:55;;;;;;;4.87;2.53;;;;;;;;;;4782114;29;20208;-82
2021/04/25 08:39:22;;;;;;;9.73;2.73;;;;;;;;;;4762427;30;20308;-83
2021/04/25 08:41:48;;;;;;;5.43;1.77;;;;;;;;;;4782018;29;20215;-83
2021/04/25 08:44:19;;;;;;;9.20;2.00;;;8.40;48.10;;;;;;4767009;30;20212;-83
2021/04/25 08:46:47;;;;;;;3.20;1.73;;;8.40;47.50;;;;;;4767104;29;20250;-85
2021/04/25 08:49:16;;;;;;;5.50;2.33;;;8.50;47.70;;;;;;4766518;30;20204;-82
2021/04/25 08:51:43;;;;;;;4.93;1.80;;;;;;;;;;4768424;30;20190;-82
2021/04/25 08:54:09;;;;;;;3.53;2.27;;;;;;;;;;4781912;29;20209;-84
2021/04/25 08:56:35;;;;;;;4.43;2.37;;;;;;;;;;4766974;30;20217;-83
2021/04/25 08:59:01;;;;;;;7.10;2.43;;;;;;;;;;4761284;30;20191;-84
2021/04/25 09:01:27;;;;;;;3.10;2.03;;;;;;;;;;4754458;30;20686;-85
2021/04/25 09:03:54;;;;;;;4.10;2.37;;;;;;;;;;4781572;29;20198;-84
2021/04/25 09:06:20;;;;;;;4.00;2.10;;;;;;;;;;4768322;30;20300;-83
2021/04/25 09:08:57;;;;;;;5.07;2.53;;;8.90;50.20;;;;;;4768430;30;20197;-83
2021/04/25 09:11:40;;;;;;;3.67;2.23;;;8.80;56.00;;;;;;4766802;29;20677;-82
2021/04/25 09:14:25;;;;;;;3.53;2.20;;;8.40;57.10;;;;;;4768672;30;20197;-82
2021/04/25 09:16:54;;;;;;;4.60;2.37;;;9.20;57.10;;;;;;4780268;29;20201;-83
2021/04/25 09:19:21;;;;;;;3.70;1.93;;;9.40;56.20;;;;;;4768033;30;20229;-82
2021/04/25 09:22:01;;;;;;;3.40;2.37;;;9.10;54.20;;;;;;4778435;29;20549;-82
2021/04/25 09:24:28;;;;;;;3.07;2.07;;;9.20;47.60;;;;;;4762799;30;20191;-84
2021/04/25 09:26:55;;;;;;;2.97;2.07;;;9.20;47.80;;;;;;4767394;30;20264;-82
2021/04/25 09:29:26;;;;;;;5.70;2.43;;;9.30;50.00;;;;;;4784474;29;20194;-83
2021/04/25 09:31:55;;;;;;;6.97;1.90;;;9.40;47.20;;;;;;4768651;30;20199;-83
2021/04/25 09:34:26;;;;;;;2.50;2.13;;;9.40;47.70;;;;;;4770733;30;20277;-84
2021/04/25 09:36:53;;;;;;;6.13;2.40;;;;;;;;;;4770354;30;20205;-84
2021/04/25 09:39:19;;;;;;;2.73;2.10;;;9.60;55.60;;;;;;4767690;30;20221;-83
2021/04/25 09:41:47;;;;;;;3.07;2.20;;;9.20;48.30;;;;;;4753588;30;20673;-81
2021/04/25 09:44:48;;;;;;;4.53;2.00;;;8.90;57.80;;;;;;4760479;30;20197;-83
2021/04/25 09:47:14;;;;;;;6.30;2.13;;;;;;;;;;4740480;30;20278;-87
2021/04/25 09:49:46;;;;;;;3.27;2.37;;;9.10;48.20;;;;;;4748167;30;20265;-82
2021/04/25 09:52:26;;;;;;;3.60;2.40;;;9.10;49.50;;;;;;4760207;30;20209;-82
2021/04/25 09:55:34;;;;;;;2.50;1.70;;;9.00;49.70;;;;;;4762251;30;20445;-81
2021/04/25 09:58:07;;;;;;;3.67;2.00;;;8.50;63.20;;;;;;4765841;30;20202;-81
2021/04/25 10:00:38;;;;;;;5.83;2.50;;;8.70;49.70;;;;;;4758860;30;20213;-82
2021/04/25 10:03:12;;;;;;;3.00;2.20;;;8.70;50.00;;;;;;4764947;29;20678;-82
2021/04/25 10:05:39;;;;;;;3.30;2.17;;;8.50;49.30;;;;;;4755577;30;20237;-82
2021/04/25 10:08:05;;;;;;;3.57;2.03;;;8.00;49.40;;;;;;4756785;30;20198;-81
2021/04/25 10:10:32;;;;;;;4.97;2.33;;;8.50;50.30;;;;;;4754602;30;20303;-80
2021/04/25 10:12:58;;;;;;;4.20;1.70;;;;;;;;;;4767374;30;20190;-83
2021/04/25 10:15:25;;;;;;;3.97;2.10;;;;;;;;;;4765659;30;20336;-83
2021/04/25 10:17:54;;;;;;;3.67;2.33;;;8.40;49.80;;;;;;4778892;29;20206;-82
2021/04/25 10:20:21;;;;;;;8.87;2.20;;;8.40;49.20;;;;;;4758175;30;20229;-83
2021/04/25 10:22:49;;;;;;;5.13;2.93;;;8.40;51.00;;;;;;4766421;29;20198;-83
2021/04/25 10:25:30;;;;;;;4.37;2.17;;;7.70;50.00;;;;;;4741858;30;20308;-82
2021/04/25 10:27:59;;;;;;;5.13;2.30;;;8.40;51.30;;;;;;4770196;30;20209;-82
2021/04/25 10:30:31;;;;;;;5.17;2.50;;;8.70;59.40;;;;;;4766219;30;20668;-81
2021/04/25 10:32:58;;;;;;;10.20;2.13;;;8.40;60.10;;;;;;4763202;30;20186;-81
2021/04/25 10:35:25;;;;;;;4.93;2.67;;;8.20;59.50;;;;;;4765644;30;20320;-82
2021/04/25 10:37:51;;;;;;;6.63;2.40;;;8.50;58.90;;;;;;4759098;30;20191;-83
2021/04/25 10:40:22;;;;;;;3.73;2.07;;;8.60;59.30;;;;;;4760181;30;20217;-82
2021/04/25 10:42:54;;;;;;;4.60;2.47;;;8.70;52.20;;;;;;4763808;30;20194;-82
2021/04/25 10:45:25;;;;;;;4.10;2.00;;;8.70;53.50;;;;;;4759037;30;20565;-84
2021/04/25 10:48:30;;;;;;;3.80;2.60;;;8.90;58.00;;;;;;4758418;30;20245;-82
2021/04/25 10:51:13;;;;;;;4.30;2.57;;;8.90;51.20;;;;;;4759583;30;20194;-82
2021/04/25 10:53:41;;;;;;;4.53;2.50;;;8.80;51.90;;;;;;4766856;30;20284;-87
2021/04/25 10:56:13;;;;;;;3.80;2.43;;;8.80;52.50;;;;;;4765968;30;20198;-83
2021/04/25 10:59:09;;;;;;;4.27;2.07;;;9.50;60.60;;;;;;4761712;30;20233;-83
2021/04/25 11:01:40;;;;;;;5.40;2.20;;;9.50;58.80;;;;;;4757579;30;20785;-81
2021/04/25 11:04:08;;;;;;;3.77;2.33;;;9.60;51.50;;;;;;4753965;30;20207;-82
2021/04/25 11:06:34;;;;;;;3.33;2.17;;;;;;;;;;4761787;30;20669;-81
2021/04/25 11:09:01;;;;;;;5.20;2.20;;;;;;;;;;4760011;30;20661;-82
2021/04/25 11:11:37;;;;;;;6.40;2.20;;;9.20;49.60;;;;;;4765383;30;20260;-83
2021/04/25 11:14:05;;;;;;;3.47;2.13;;;9.00;49.80;;;;;;4771081;29;20286;-82
2021/04/25 11:16:35;;;;;;;4.37;2.80;;;9.10;49.90;;;;;;4749278;30;20209;-85
2021/04/25 11:19:09;;;;;;;4.57;2.30;;;9.20;49.60;;;;;;4757377;29;20213;-82
2021/04/25 11:21:47;;;;;;;5.13;2.20;;;9.10;72.60;;;;;;4763326;30;20254;-83
2021/04/25 11:24:13;;;;;;;6.33;3.10;;;;;;;;;;4755225;30;20987;-84
2021/04/25 11:26:43;;;;;;;4.97;2.93;;;9.20;71.40;;;;;;4757232;30;20309;-84
2021/04/25 11:29:12;;;;;;;4.77;2.47;;;9.40;72.40;;;;;;4768120;30;20195;-84
2021/04/25 11:34:34;;;;;;;5.20;2.67;;;8.90;61.40;;;;;;4757394;30;20197;-83
2021/04/25 11:37:19;;;;;;;3.07;2.20;;;9.40;49.10;;;;;;4755160;30;20277;-83
2021/04/25 11:39:46;;;;;;;4.30;2.60;;;9.50;47.70;;;;;;4769126;30;20418;-83
2021/04/25 11:42:30;;;;;;;5.13;2.30;;;9.40;48.60;;;;;;4771278;30;20667;-84
2021/04/25 11:44:58;;;;;;;5.17;2.63;;;9.70;56.70;;;;;;4783102;29;20194;-84
2021/04/25 11:47:29;;;;;;;7.77;3.00;;;;;;;;;;4782906;29;20656;-85
2021/04/25 11:49:55;;;;;;;5.07;2.80;;;;;;;;;;4766552;30;20206;-83
2021/04/25 11:52:23;;;;;;;3.57;2.50;;;9.60;49.00;;;;;;4761037;30;20221;-84
2021/04/25 11:54:57;;;;;;;6.73;3.13;;;9.60;49.60;;;;;;4774623;29;20664;-83
2021/04/25 11:57:24;;;;;;;3.40;2.40;;;;;;;;;;4753984;30;20209;-83
2021/04/25 12:00:07;;;;;;;7.10;2.60;;;9.30;49.30;;;;;;4756620;30;20247;-84
2021/04/25 12:02:49;;;;;;;6.47;3.13;;;9.40;49.70;;;;;;4754990;30;20194;-84
2021/04/25 12:05:19;;;;;;;6.50;3.00;;;9.10;49.30;;;;;;4765131;30;20225;-82
2021/04/25 12:07:59;;;;;;;6.13;2.80;;;8.80;62.90;;;;;;4765306;29;20194;-81
2021/04/25 12:10:30;;;;;;;5.20;3.03;;;9.10;50.20;;;;;;4760767;30;20229;-82
2021/04/25 12:13:12;;;;;;;3.37;2.50;;;9.10;49.30;;;;;;4766002;30;20177;-87
2021/04/25 12:15:56;;;;;;;6.07;2.47;;;9.30;72.90;;;;;;4761091;30;20189;-80
2021/04/25 12:18:24;;;;;;;6.37;3.13;;;9.30;50.30;;;;;;4761856;30;20179;-81
2021/04/25 12:20:53;;;;;;;4.77;3.33;;;9.40;49.30;;;;;;4761251;30;20274;-81
2021/04/25 12:23:25;;;;;;;4.63;2.83;;;9.60;74.40;;;;;;4758162;29;20198;-82
2021/04/25 12:25:52;;;;;;;5.80;2.70;;;;;;;;;;4766977;30;20565;-83
2021/04/25 12:28:19;;;;;;;6.73;3.50;;;9.90;51.00;;;;;;4768509;30;20190;-82
2021/04/25 12:30:54;;;;;;;6.70;2.90;;;9.90;49.40;;;;;;4768637;30;20221;-82
2021/04/25 12:33:20;;;;;;;7.73;3.53;;;;;;;;;;4789602;29;20189;-81
2021/04/25 12:35:48;;;;;;;6.33;3.60;;;10.00;50.10;;;;;;4773302;30;20261;-82
2021/04/25 12:38:26;;;;;;;2.93;2.30;;;9.90;54.90;;;;;;4768786;30;20194;-82
2021/04/25 12:41:01;;;;;;;5.27;2.70;;;9.90;50.10;;;;;;4754499;30;20199;-81
2021/04/25 12:43:30;;;;;;;5.27;3.17;;;9.90;49.90;;;;;;4758996;30;20730;-81
2021/04/25 12:45:57;;;;;;;6.23;3.43;;;10.10;49.50;;;;;;4760035;30;20249;-81
2021/04/25 12:48:23;;;;;;;4.67;3.00;;;;;;;;;;4768217;29;20225;-83
2021/04/25 12:51:12;;;;;;;4.97;2.77;;;10.00;48.10;;;;;;4768429;30;20664;-83
2021/04/25 12:53:50;;;;;;;4.20;3.00;;;9.90;49.00;;;;;;4768657;30;20424;-83
2021/04/25 12:56:21;;;;;;;3.83;2.37;;;9.70;48.70;;;;;;4768854;30;20204;-82
2021/04/25 12:59:00;;;;;;;6.17;3.43;;;9.80;62.50;;;;;;4781899;29;20202;-80
2021/04/25 13:01:26;;;;;;;6.03;3.17;;;;;;;;;;4771386;30;20230;-81
2021/04/25 13:03:52;;;;;;;4.47;3.57;;;;;;;;;;4785479;29;20202;-82
2021/04/25 13:06:27;;;;;;;6.00;3.40;;;9.10;62.50;;;;;;4770651;30;20278;-80
2021/04/25 13:08:53;;;;;;;3.63;3.00;;;;;;;;;;4764590;30;20739;-81
2021/04/25 13:11:36;;;;;;;3.97;2.70;;;8.70;52.20;;;;;;4762377;30;20242;-81
2021/04/25 13:14:13;;;;;;;3.43;2.73;;;8.50;60.50;;;;;;4771793;29;20652;-80
2021/04/25 13:16:40;;;;;;;4.40;3.13;;;;;;;;;;4768815;30;20292;-81
2021/04/25 13:19:08;;;;;;;6.53;3.87;;;8.60;52.00;;;;;;4761320;30;20289;-80
2021/04/25 13:21:52;;;;;;;5.33;3.47;;;8.80;51.10;;;;;;4785289;29;20236;-82
2021/04/25 13:24:18;;;;;;;10.70;6.00;;;8.70;59.30;;;;;;4760928;30;20230;-82